Time;durP1;ratioP1;P1;durP2;ratioP2;P2;SDS_P1;SDS_P2;PMS_P1;PMS_P2;Temp;Humidity;BMP_temperature;BMP_pressure;BME280_temperature;BME280_humidity;BME280_pressure;Samples;Min_cycle;Max_cycle;Signal;HPM_P1;HPM_P2
2021/06/12 00:01:30;;;;;;;3.20;3.03;;;26.00;68.80;;;;;;4971870;28;20194;-54
2021/06/12 00:03:56;;;;;;;2.80;2.70;;;26.00;68.80;;;;;;4971757;28;20197;-54
2021/06/12 00:06:22;;;;;;;3.10;3.00;;;26.00;68.80;;;;;;4971625;28;20141;-54
2021/06/12 00:08:48;;;;;;;2.95;2.85;;;26.00;68.80;;;;;;4965952;28;20054;-54
2021/06/12 00:11:14;;;;;;;2.90;2.70;;;26.00;68.80;;;;;;4966204;28;20522;-54
2021/06/12 00:13:40;;;;;;;2.38;2.38;;;26.00;68.90;;;;;;4971767;28;20133;-54
2021/06/12 00:16:06;;;;;;;3.30;3.13;;;26.00;68.80;;;;;;4971295;28;20240;-54
2021/06/12 00:18:32;;;;;;;2.85;2.75;;;26.00;68.90;;;;;;4971697;28;20468;-54
2021/06/12 00:21:00;;;;;;;2.97;2.88;;;26.00;68.90;;;;;;4971464;28;20137;-54
2021/06/12 00:23:26;;;;;;;2.85;2.70;;;26.00;68.80;;;;;;4971283;28;20095;-54
2021/06/12 00:25:52;;;;;;;2.72;2.65;;;26.00;68.90;;;;;;4971544;28;20093;-54
2021/06/12 00:28:18;;;;;;;3.28;3.17;;;26.00;68.90;;;;;;4971302;28;20598;-54
2021/06/12 00:30:44;;;;;;;2.70;2.60;;;26.00;68.90;;;;;;4971390;28;20047;-54
2021/06/12 00:33:10;;;;;;;3.10;3.00;;;26.00;68.90;;;;;;4971139;28;20059;-55
2021/06/12 00:35:36;;;;;;;3.03;2.95;;;26.00;69.50;;;;;;4970866;28;20193;-54
2021/06/12 00:38:03;;;;;;;3.15;3.08;;;26.00;69.00;;;;;;4971121;28;20567;-54
2021/06/12 00:40:29;;;;;;;3.15;2.95;;;26.00;68.90;;;;;;4971104;28;20129;-55
2021/06/12 00:42:55;;;;;;;2.38;2.28;;;26.00;69.00;;;;;;4971162;28;20498;-54
2021/06/12 00:45:27;;;;;;;2.63;2.53;;;26.00;69.00;;;;;;4970860;28;20065;-54
2021/06/12 00:47:54;;;;;;;2.75;2.65;;;25.90;68.90;;;;;;4971081;28;20566;-53
2021/06/12 00:50:22;;;;;;;3.25;3.05;;;26.00;69.00;;;;;;4970798;28;20063;-54
2021/06/12 00:52:48;;;;;;;3.13;3.03;;;26.00;69.00;;;;;;4970662;28;20047;-55
2021/06/12 00:55:15;;;;;;;2.55;2.45;;;25.90;68.90;;;;;;4965078;28;20594;-54
2021/06/12 00:57:43;;;;;;;2.83;2.72;;;25.90;68.90;;;;;;4970695;28;20051;-54
2021/06/12 01:00:12;;;;;;;3.25;3.05;;;25.90;69.00;;;;;;4970931;28;20057;-54
2021/06/12 01:02:38;;;;;;;2.40;2.40;;;25.90;68.90;;;;;;4970964;28;20177;-54
2021/06/12 01:05:08;;;;;;;2.60;2.50;;;25.90;68.90;;;;;;4970932;28;20407;-54
2021/06/12 01:07:35;;;;;;;2.72;2.60;;;25.90;69.00;;;;;;4966174;28;20455;-54
2021/06/12 01:10:02;;;;;;;3.13;2.90;;;25.90;69.00;;;;;;4970176;28;20113;-54
2021/06/12 01:12:41;;;;;;;2.83;2.72;;;26.00;69.00;;;;;;4965323;28;20054;-54
2021/06/12 01:15:10;;;;;;;2.47;2.47;;;25.90;69.00;;;;;;4964476;28;20455;-54
2021/06/12 01:18:05;;;;;;;2.63;2.58;;;25.90;69.00;;;;;;4970428;28;20051;-54
2021/06/12 01:20:51;;;;;;;2.58;2.47;;;26.00;69.10;;;;;;4970429;28;20193;-54
2021/06/12 01:23:51;;;;;;;2.40;2.30;;;25.90;69.00;;;;;;4964868;28;20058;-55
2021/06/12 01:27:03;;;;;;;2.35;2.35;;;25.90;69.10;;;;;;4970330;28;20058;-54
2021/06/12 01:29:38;;;;;;;2.80;2.70;;;25.90;69.20;;;;;;4954602;28;20133;-54
2021/06/12 01:32:05;;;;;;;3.70;3.50;;;26.00;69.10;;;;;;4970385;28;20185;-55
2021/06/12 01:34:33;;;;;;;2.75;2.65;;;25.90;69.00;;;;;;4970288;28;20451;-54
2021/06/12 01:37:02;;;;;;;2.30;2.20;;;25.90;69.10;;;;;;4970182;28;20054;-54
2021/06/12 01:39:30;;;;;;;3.00;2.90;;;25.90;69.10;;;;;;4970103;28;20086;-54
2021/06/12 01:41:59;;;;;;;2.90;2.58;;;25.90;69.10;;;;;;4970032;28;20058;-54
2021/06/12 01:44:28;;;;;;;2.80;2.70;;;25.90;69.10;;;;;;4969979;28;20137;-54
2021/06/12 01:46:56;;;;;;;2.88;2.78;;;25.90;69.10;;;;;;4969374;28;20169;-53
2021/06/12 01:49:23;;;;;;;2.25;2.17;;;25.90;69.10;;;;;;4969910;28;20054;-54
2021/06/12 01:51:50;;;;;;;2.92;2.72;;;25.90;69.20;;;;;;4968192;28;20054;-54
2021/06/12 01:54:19;;;;;;;2.67;2.58;;;25.90;69.20;;;;;;4968771;28;20141;-54
2021/06/12 01:56:45;;;;;;;2.60;2.20;;;25.90;69.20;;;;;;4960647;28;20066;-54
2021/06/12 01:59:12;;;;;;;2.70;2.60;;;25.90;69.20;;;;;;4969709;28;20134;-54
2021/06/12 02:01:47;;;;;;;2.28;2.08;;;25.90;69.20;;;;;;4969401;28;20137;-54
2021/06/12 02:04:16;;;;;;;2.67;2.58;;;25.90;69.20;;;;;;4969645;28;20066;-54
2021/06/12 02:06:44;;;;;;;2.13;2.13;;;25.90;69.20;;;;;;4969572;28;20177;-54
2021/06/12 02:09:11;;;;;;;2.22;2.22;;;25.90;69.20;;;;;;4962624;28;20054;-53
2021/06/12 02:11:38;;;;;;;2.30;2.20;;;25.90;69.30;;;;;;4962439;28;20082;-54
2021/06/12 02:14:07;;;;;;;3.45;2.95;;;25.90;69.20;;;;;;4969699;28;20591;-55
2021/06/12 02:16:35;;;;;;;2.42;2.40;;;25.90;69.20;;;;;;4969571;28;20059;-54
2021/06/12 02:19:03;;;;;;;2.55;2.45;;;25.90;69.30;;;;;;4969692;28;20058;-54
2021/06/12 02:21:31;;;;;;;2.60;2.60;;;25.90;69.30;;;;;;4969093;28;20125;-54
2021/06/12 02:23:57;;;;;;;2.47;2.47;;;25.90;69.20;;;;;;4969524;28;20055;-54
2021/06/12 02:26:26;;;;;;;3.05;2.88;;;25.90;69.20;;;;;;4969082;28;20078;-54
2021/06/12 02:28:54;;;;;;;2.83;2.72;;;25.90;69.30;;;;;;4969258;28;20119;-54
2021/06/12 02:31:26;;;;;;;2.63;2.53;;;25.90;69.30;;;;;;4963714;28;20074;-55
2021/06/12 02:33:53;;;;;;;2.42;2.42;;;25.90;69.30;;;;;;4969434;28;20129;-54
2021/06/12 02:36:19;;;;;;;2.55;2.42;;;25.90;69.30;;;;;;4969095;28;20062;-54
2021/06/12 02:38:46;;;;;;;2.58;2.47;;;25.90;69.60;;;;;;4969216;28;20117;-54
2021/06/12 02:41:12;;;;;;;2.63;2.63;;;25.90;69.30;;;;;;4968975;28;20137;-54
2021/06/12 02:43:38;;;;;;;2.60;2.50;;;25.90;69.30;;;;;;4968953;28;20058;-54
2021/06/12 02:46:08;;;;;;;2.40;2.40;;;25.90;69.30;;;;;;4969304;28;20072;-54
2021/06/12 02:48:36;;;;;;;2.97;2.78;;;25.90;69.40;;;;;;4969079;28;20145;-53
2021/06/12 02:51:03;;;;;;;2.63;2.63;;;25.80;69.30;;;;;;4966268;28;20150;-54
2021/06/12 02:53:34;;;;;;;2.55;2.45;;;25.90;69.40;;;;;;4971287;28;20147;-54
2021/06/12 02:56:02;;;;;;;2.95;2.85;;;25.80;69.30;;;;;;4962786;28;20145;-54
2021/06/12 02:58:29;;;;;;;2.58;2.55;;;25.90;69.40;;;;;;4969707;28;20079;-54
2021/06/12 03:00:56;;;;;;;2.22;2.13;;;25.80;69.30;;;;;;4973115;28;20513;-54
2021/06/12 03:03:24;;;;;;;2.78;2.67;;;25.80;69.30;;;;;;4972909;28;20137;-54
2021/06/12 03:05:55;;;;;;;2.83;2.72;;;25.80;69.30;;;;;;4972997;28;20046;-54
2021/06/12 03:08:24;;;;;;;2.55;2.53;;;25.80;69.30;;;;;;4967215;28;20150;-54
2021/06/12 03:10:52;;;;;;;3.17;2.97;;;25.90;69.40;;;;;;4967350;28;20515;-54
2021/06/12 03:13:23;;;;;;;2.72;2.63;;;25.80;69.40;;;;;;4965837;28;20051;-54
2021/06/12 03:15:49;;;;;;;2.67;2.58;;;25.80;69.30;;;;;;4972459;28;20046;-54
2021/06/12 03:18:15;;;;;;;2.53;2.42;;;25.80;69.40;;;;;;4972641;28;20161;-54
2021/06/12 03:20:42;;;;;;;2.70;2.60;;;25.80;69.40;;;;;;4972475;28;20134;-54
2021/06/12 03:23:09;;;;;;;2.75;2.58;;;25.80;69.40;;;;;;4972739;28;20097;-55
2021/06/12 03:25:37;;;;;;;2.95;2.85;;;25.90;69.60;;;;;;4972444;28;20475;-54
2021/06/12 03:28:03;;;;;;;2.42;2.40;;;25.80;69.50;;;;;;4972608;28;20054;-54
2021/06/12 03:30:30;;;;;;;2.85;2.65;;;25.80;69.50;;;;;;4972508;28;20109;-54
2021/06/12 03:32:57;;;;;;;2.28;2.28;;;25.80;69.50;;;;;;4972308;28;20055;-54
2021/06/12 03:35:23;;;;;;;2.10;2.00;;;25.80;69.50;;;;;;4967287;28;20180;-54
2021/06/12 03:37:49;;;;;;;2.45;2.45;;;25.80;69.60;;;;;;4972251;28;20081;-54
2021/06/12 03:40:16;;;;;;;2.67;2.58;;;25.80;69.60;;;;;;4971909;28;20185;-54
2021/06/12 03:42:44;;;;;;;2.35;2.35;;;25.80;69.70;;;;;;4972221;28;20133;-54
2021/06/12 03:45:12;;;;;;;3.15;2.80;;;25.80;69.70;;;;;;4970232;28;20055;-54
2021/06/12 03:47:39;;;;;;;2.10;2.10;;;25.80;69.70;;;;;;4972117;28;20141;-54
2021/06/12 03:50:08;;;;;;;2.75;2.65;;;25.70;69.60;;;;;;4972105;28;20050;-54
2021/06/12 03:52:35;;;;;;;2.30;2.20;;;25.80;69.70;;;;;;4973071;28;20422;-54
2021/06/12 03:55:05;;;;;;;2.83;2.72;;;25.80;69.70;;;;;;4966324;28;20137;-54
2021/06/12 03:57:32;;;;;;;2.47;2.38;;;25.70;69.70;;;;;;4971810;28;20042;-54
2021/06/12 04:00:01;;;;;;;2.80;2.70;;;25.70;69.80;;;;;;4971775;28;20053;-54
2021/06/12 04:02:27;;;;;;;3.10;3.10;;;25.80;69.70;;;;;;4971877;28;20529;-54
2021/06/12 04:04:56;;;;;;;2.40;2.25;;;25.80;69.80;;;;;;4971831;28;20051;-54
2021/06/12 04:07:22;;;;;;;2.38;2.38;;;25.70;69.80;;;;;;4968778;28;20055;-54
2021/06/12 04:09:49;;;;;;;2.45;2.35;;;25.70;69.80;;;;;;4968914;28;20134;-54
2021/06/12 04:12:14;;;;;;;2.38;2.28;;;25.70;69.80;;;;;;4966119;28;20129;-54
2021/06/12 04:14:40;;;;;;;2.40;2.30;;;25.70;69.80;;;;;;4971459;28;20057;-55
2021/06/12 04:17:07;;;;;;;2.40;2.40;;;25.70;69.80;;;;;;4971545;28;20877;-54
2021/06/12 04:19:33;;;;;;;2.30;2.22;;;25.70;69.90;;;;;;4971889;28;20051;-54
2021/06/12 04:21:59;;;;;;;2.20;2.15;;;25.70;69.90;;;;;;4971775;28;20057;-54
2021/06/12 04:24:25;;;;;;;2.88;2.78;;;25.70;70.00;;;;;;4971784;28;20149;-54
2021/06/12 04:26:51;;;;;;;2.25;2.25;;;25.70;69.90;;;;;;4970320;28;20153;-54
2021/06/12 04:29:17;;;;;;;2.63;2.42;;;25.70;70.00;;;;;;4970953;28;20078;-55
2021/06/12 04:31:43;;;;;;;2.30;2.22;;;25.70;70.00;;;;;;4971317;28;20503;-55
2021/06/12 04:34:09;;;;;;;2.60;2.50;;;25.70;70.00;;;;;;4971258;28;20339;-55
2021/06/12 04:36:35;;;;;;;2.22;2.20;;;25.70;70.00;;;;;;4971398;28;20053;-55
2021/06/12 04:39:01;;;;;;;2.33;2.25;;;25.70;70.10;;;;;;4971334;28;20094;-54
2021/06/12 04:41:27;;;;;;;2.90;2.75;;;25.70;70.10;;;;;;4971265;28;20057;-54
2021/06/12 04:43:53;;;;;;;3.10;2.40;;;25.70;70.10;;;;;;4970994;28;20051;-54
2021/06/12 04:46:19;;;;;;;2.60;2.50;;;25.70;70.10;;;;;;4970921;28;20121;-54
2021/06/12 04:48:45;;;;;;;2.47;2.47;;;25.70;70.20;;;;;;4970652;28;20109;-55
2021/06/12 04:51:11;;;;;;;2.05;2.05;;;25.70;70.10;;;;;;4968307;28;20054;-54
2021/06/12 04:53:37;;;;;;;2.30;2.20;;;25.70;70.20;;;;;;4974090;28;20489;-55
2021/06/12 04:56:03;;;;;;;2.92;2.47;;;25.70;70.20;;;;;;4980085;28;20150;-54
2021/06/12 04:58:29;;;;;;;1.92;1.92;;;25.70;70.30;;;;;;4970717;28;20170;-54
2021/06/12 05:00:55;;;;;;;2.38;2.28;;;25.70;70.30;;;;;;4970834;28;20165;-54
2021/06/12 05:03:21;;;;;;;2.78;2.67;;;25.70;70.30;;;;;;4970750;28;20161;-54
2021/06/12 05:05:48;;;;;;;2.35;2.25;;;25.70;70.30;;;;;;4970742;28;20110;-54
2021/06/12 05:08:16;;;;;;;2.33;2.22;;;25.70;70.40;;;;;;4965083;28;20063;-54
2021/06/12 05:10:42;;;;;;;2.42;2.35;;;25.70;70.40;;;;;;4966806;28;20527;-54
2021/06/12 05:13:09;;;;;;;2.50;2.50;;;25.70;70.50;;;;;;4969628;28;20503;-54
2021/06/12 05:15:35;;;;;;;2.28;2.28;;;25.70;70.60;;;;;;4970271;28;20130;-54
2021/06/12 05:18:05;;;;;;;2.20;2.20;;;25.70;70.50;;;;;;4970579;28;20202;-55
2021/06/12 05:20:32;;;;;;;2.45;2.45;;;25.70;70.60;;;;;;4970502;28;20051;-54
2021/06/12 05:22:58;;;;;;;2.47;2.47;;;25.70;70.70;;;;;;4969262;28;20086;-54
2021/06/12 05:25:25;;;;;;;1.77;1.77;;;25.70;70.60;;;;;;4970282;28;20078;-55
2021/06/12 05:27:51;;;;;;;2.50;2.40;;;25.70;70.70;;;;;;4970217;28;20080;-54
2021/06/12 05:30:18;;;;;;;2.35;2.35;;;25.70;70.80;;;;;;4969723;28;20065;-55
2021/06/12 05:32:44;;;;;;;2.50;2.40;;;25.70;70.80;;;;;;4970163;28;20105;-54
2021/06/12 05:35:10;;;;;;;2.45;2.35;;;25.70;70.80;;;;;;4969925;28;20062;-54
2021/06/12 05:37:37;;;;;;;2.75;2.65;;;25.70;70.80;;;;;;4970126;28;20154;-55
2021/06/12 05:40:05;;;;;;;2.42;2.40;;;25.70;70.70;;;;;;4970155;28;20450;-55
2021/06/12 05:42:31;;;;;;;2.50;2.45;;;25.70;70.80;;;;;;4962614;28;20093;-55
2021/06/12 05:44:57;;;;;;;2.95;2.80;;;25.70;70.80;;;;;;4969617;28;20059;-54
2021/06/12 05:47:23;;;;;;;2.47;2.47;;;25.70;70.80;;;;;;4970179;28;20145;-54
2021/06/12 05:49:49;;;;;;;2.47;2.38;;;25.60;70.80;;;;;;4969590;28;20126;-55
2021/06/12 05:52:15;;;;;;;2.80;2.70;;;25.70;70.90;;;;;;4970797;28;20129;-53
2021/06/12 05:54:41;;;;;;;2.30;2.25;;;25.70;71.00;;;;;;4963756;28;20133;-54
2021/06/12 05:57:07;;;;;;;2.97;2.88;;;25.70;71.00;;;;;;4969842;28;20477;-54
2021/06/12 05:59:33;;;;;;;2.90;2.80;;;25.60;70.90;;;;;;4969546;28;20196;-54
2021/06/12 06:01:59;;;;;;;2.72;2.63;;;25.70;71.00;;;;;;4965153;28;20042;-54
2021/06/12 06:04:25;;;;;;;3.10;2.97;;;25.60;70.90;;;;;;4967974;28;20125;-57
2021/06/12 06:06:51;;;;;;;2.85;2.75;;;25.70;71.00;;;;;;4966584;28;20059;-55
2021/06/12 06:09:17;;;;;;;7.80;7.10;;;25.70;71.20;;;;;;4965974;28;20719;-59
2021/06/12 06:11:43;;;;;;;10.63;7.70;;;25.60;67.70;;;;;;4967899;28;20081;-59
2021/06/12 06:14:09;;;;;;;8.68;7.95;;;25.60;67.30;;;;;;4961400;28;20047;-59
2021/06/12 06:16:35;;;;;;;11.30;7.75;;;25.50;67.30;;;;;;4969525;28;20062;-58
2021/06/12 06:19:01;;;;;;;8.27;7.53;;;25.50;67.30;;;;;;4965991;28;20050;-58
2021/06/12 06:21:28;;;;;;;11.48;8.63;;;25.40;67.40;;;;;;4969559;28;20542;-59
2021/06/12 06:23:54;;;;;;;13.15;8.30;;;25.30;67.70;;;;;;4984249;28;20149;-59
2021/06/12 06:26:20;;;;;;;11.68;8.93;;;25.30;68.00;;;;;;4969635;28;20129;-59
2021/06/12 06:28:46;;;;;;;9.93;8.85;;;25.30;68.10;;;;;;4963516;28;20620;-57
2021/06/12 06:31:12;;;;;;;13.38;8.75;;;25.20;68.10;;;;;;4965281;28;20157;-61
2021/06/12 06:33:38;;;;;;;9.32;8.35;;;25.20;67.90;;;;;;4966751;28;20133;-58
2021/06/12 06:36:05;;;;;;;12.35;8.07;;;25.20;67.70;;;;;;4962223;28;20165;-58
2021/06/12 06:38:31;;;;;;;8.57;7.18;;;25.20;68.10;;;;;;4965796;28;20077;-59
2021/06/12 06:40:57;;;;;;;9.05;7.13;;;25.30;67.20;;;;;;4965264;28;20054;-58
2021/06/12 06:43:23;;;;;;;6.95;6.32;;;25.30;67.40;;;;;;4955382;28;20527;-56
2021/06/12 06:45:49;;;;;;;6.32;5.72;;;25.30;67.60;;;;;;4965402;28;20042;-56
2021/06/12 06:48:16;;;;;;;6.00;4.20;;;25.30;67.80;;;;;;4959712;28;20048;-56
2021/06/12 06:50:44;;;;;;;4.38;3.97;;;25.30;68.10;;;;;;4969085;28;20145;-56
2021/06/12 06:53:10;;;;;;;6.43;5.47;;;25.40;68.40;;;;;;4964767;28;20070;-56
2021/06/12 06:55:37;;;;;;;5.30;4.75;;;25.40;68.50;;;;;;4965188;28;20204;-57
2021/06/12 06:58:04;;;;;;;5.40;4.85;;;25.40;68.60;;;;;;4965468;28;20057;-55
2021/06/12 07:00:30;;;;;;;8.40;5.35;;;25.40;68.60;;;;;;4965260;28;20047;-53
2021/06/12 07:02:56;;;;;;;5.15;4.43;;;25.40;68.80;;;;;;4966249;28;20058;-54
2021/06/12 07:05:22;;;;;;;4.63;4.32;;;25.40;69.00;;;;;;4965237;28;20059;-55
2021/06/12 07:07:48;;;;;;;5.72;4.38;;;25.40;69.20;;;;;;4968741;28;20051;-56
2021/06/12 07:10:15;;;;;;;5.05;4.53;;;25.40;69.40;;;;;;4967806;28;20066;-57
2021/06/12 07:12:41;;;;;;;4.93;4.55;;;25.40;69.40;;;;;;4963947;28;20126;-56
2021/06/12 07:15:10;;;;;;;6.38;4.88;;;25.40;69.40;;;;;;4964890;28;20053;-52
2021/06/12 07:17:36;;;;;;;5.90;5.30;;;25.40;69.60;;;;;;4965460;28;20170;-55
2021/06/12 07:20:05;;;;;;;5.70;5.20;;;25.40;69.60;;;;;;4967216;28;20133;-54
2021/06/12 07:22:31;;;;;;;5.55;5.05;;;25.50;69.70;;;;;;4967558;28;20051;-52
2021/06/12 07:24:57;;;;;;;4.93;4.38;;;25.40;69.50;;;;;;4967964;28;20734;-51
2021/06/12 07:27:24;;;;;;;4.00;3.80;;;25.40;69.60;;;;;;4968344;28;20197;-54
2021/06/12 07:29:50;;;;;;;5.45;4.93;;;25.40;69.70;;;;;;4968017;28;20105;-55
2021/06/12 07:32:16;;;;;;;5.68;5.28;;;25.50;69.80;;;;;;4967941;28;20046;-55
2021/06/12 07:34:42;;;;;;;6.75;5.18;;;25.40;69.60;;;;;;4968275;28;20508;-55
2021/06/12 07:37:08;;;;;;;6.88;5.40;;;25.50;69.60;;;;;;4968267;28;20085;-52
2021/06/12 07:39:34;;;;;;;6.00;5.55;;;25.50;69.60;;;;;;4968905;28;20078;-53
2021/06/12 07:42:00;;;;;;;7.10;5.65;;;25.40;69.50;;;;;;4968619;28;20129;-53
2021/06/12 07:44:26;;;;;;;5.22;4.82;;;25.40;69.40;;;;;;4968535;28;20141;-53
2021/06/12 07:46:52;;;;;;;6.38;4.30;;;25.50;69.90;;;;;;4971312;28;20507;-53
2021/06/12 07:49:18;;;;;;;8.68;5.93;;;25.50;69.90;;;;;;4972046;28;20134;-55
2021/06/12 07:51:45;;;;;;;14.07;4.97;;;25.40;69.60;;;;;;4971983;28;20133;-56
2021/06/12 07:54:11;;;;;;;5.75;5.20;;;25.50;69.70;;;;;;4971956;28;20046;-57
2021/06/12 07:56:37;;;;;;;6.80;4.53;;;25.50;69.80;;;;;;4972100;28;20061;-56
2021/06/12 07:59:03;;;;;;;12.07;6.18;;;25.40;69.80;;;;;;4972279;28;20921;-57
2021/06/12 08:01:30;;;;;;;7.85;5.78;;;25.40;69.80;;;;;;4972139;28;20047;-56
2021/06/12 08:03:56;;;;;;;5.13;4.57;;;25.40;69.70;;;;;;4971804;28;20561;-57
2021/06/12 08:06:22;;;;;;;8.77;4.50;;;25.40;69.90;;;;;;4971701;28;20067;-57
2021/06/12 08:08:48;;;;;;;4.30;4.00;;;25.40;69.70;;;;;;4971847;28;20138;-56
2021/06/12 08:11:14;;;;;;;14.88;4.32;;;25.40;69.60;;;;;;4960539;28;20098;-57
2021/06/12 08:13:40;;;;;;;9.27;4.93;;;25.40;69.80;;;;;;4971815;28;20082;-56
2021/06/12 08:16:06;;;;;;;7.80;4.40;;;25.40;69.60;;;;;;4986204;28;20051;-57
2021/06/12 08:18:33;;;;;;;4.55;4.15;;;25.40;69.60;;;;;;4978527;28;20173;-57
2021/06/12 08:21:00;;;;;;;6.88;5.03;;;25.40;69.60;;;;;;4971638;28;20046;-56
2021/06/12 08:23:26;;;;;;;4.55;3.78;;;25.50;69.20;;;;;;4971437;28;20076;-56
2021/06/12 08:25:52;;;;;;;5.90;4.50;;;25.40;69.30;;;;;;4971399;28;20133;-57
2021/06/12 08:28:18;;;;;;;5.15;4.45;;;25.50;68.90;;;;;;4971317;28;20054;-56
2021/06/12 08:30:44;;;;;;;4.90;4.47;;;25.40;68.60;;;;;;4971145;28;20515;-56
2021/06/12 08:33:11;;;;;;;4.88;4.47;;;25.40;68.40;;;;;;4971060;28;20057;-56
2021/06/12 08:35:38;;;;;;;6.65;4.78;;;25.40;68.40;;;;;;4971311;28;20711;-56
2021/06/12 08:38:06;;;;;;;5.57;3.58;;;25.40;68.50;;;;;;4971278;28;20466;-57
2021/06/12 08:40:33;;;;;;;5.57;4.80;;;25.40;68.70;;;;;;4971377;28;20161;-56
2021/06/12 08:42:59;;;;;;;3.85;3.60;;;25.40;68.50;;;;;;4971174;28;20503;-56
2021/06/12 08:45:28;;;;;;;4.65;4.35;;;25.40;68.60;;;;;;4970847;28;20050;-57
2021/06/12 08:47:56;;;;;;;5.32;4.07;;;25.40;69.00;;;;;;4971122;28;20050;-57
2021/06/12 08:50:23;;;;;;;5.80;4.20;;;25.30;68.30;;;;;;4970645;28;20066;-57
2021/06/12 08:52:51;;;;;;;4.18;3.83;;;25.40;68.30;;;;;;4967230;28;20515;-56
2021/06/12 08:55:18;;;;;;;4.90;4.60;;;25.40;68.40;;;;;;4970849;28;20085;-56
2021/06/12 08:57:45;;;;;;;4.72;4.32;;;25.40;68.30;;;;;;4964755;28;20694;-57
2021/06/12 09:00:11;;;;;;;4.90;4.50;;;25.40;68.30;;;;;;4970813;28;20054;-57
2021/06/12 09:03:07;;;;;;;9.15;3.85;;;25.40;68.30;;;;;;4970724;28;20944;-56
2021/06/12 09:05:52;;;;;;;5.53;5.03;;;25.40;68.60;;;;;;4962089;28;20062;-57
2021/06/12 09:08:36;;;;;;;7.13;4.03;;;25.30;68.20;;;;;;4970199;28;20522;-57
2021/06/12 09:11:09;;;;;;;10.57;4.78;;;25.40;68.10;;;;;;4971094;28;20046;-56
2021/06/12 09:13:42;;;;;;;12.10;4.78;;;25.40;68.10;;;;;;4970569;28;20090;-56
2021/06/12 09:16:27;;;;;;;7.43;4.30;;;25.40;68.20;;;;;;4970389;28;20046;-54
2021/06/12 09:18:55;;;;;;;8.55;4.57;;;25.40;69.00;;;;;;4965133;28;20091;-56
2021/06/12 09:21:28;;;;;;;4.40;4.07;;;25.40;68.60;;;;;;4970541;28;20050;-57
2021/06/12 09:23:57;;;;;;;5.05;3.85;;;25.40;69.00;;;;;;4970327;28;20531;-58
2021/06/12 09:26:41;;;;;;;4.95;3.03;;;25.40;69.30;;;;;;4963149;28;20050;-58
2021/06/12 09:29:08;;;;;;;8.77;4.45;;;25.40;69.30;;;;;;4966652;28;20163;-57
2021/06/12 09:31:43;;;;;;;9.60;4.97;;;25.40;69.00;;;;;;4962234;28;20097;-57
2021/06/12 09:34:11;;;;;;;6.38;4.28;;;25.40;69.10;;;;;;4963960;28;20167;-57
2021/06/12 09:36:37;;;;;;;12.15;4.82;;;25.50;69.10;;;;;;4963083;28;20059;-57
2021/06/12 09:39:19;;;;;;;8.90;3.80;;;25.50;69.10;;;;;;4970382;28;20502;-57
2021/06/12 09:41:50;;;;;;;12.85;5.15;;;25.40;69.20;;;;;;4965372;28;20125;-58
2021/06/12 09:44:31;;;;;;;7.77;4.53;;;25.40;68.70;;;;;;4970285;28;20527;-58
2021/06/12 09:46:58;;;;;;;5.70;4.60;;;25.40;68.10;;;;;;4984950;28;20065;-58
2021/06/12 09:49:37;;;;;;;14.85;4.45;;;25.40;67.40;;;;;;4969959;28;20125;-60
2021/06/12 09:52:09;;;;;;;6.63;4.40;;;25.30;67.40;;;;;;4984669;28;20150;-60
2021/06/12 09:54:44;;;;;;;8.07;4.03;;;25.30;67.20;;;;;;4963584;28;20047;-66
2021/06/12 09:57:16;;;;;;;4.38;4.05;;;25.30;67.00;;;;;;4969656;28;20294;-62
2021/06/12 09:59:42;;;;;;;3.47;3.05;;;25.30;66.60;;;;;;4969734;28;20521;-65
2021/06/12 10:02:09;;;;;;;4.15;3.50;;;25.30;67.10;;;;;;4984586;28;20082;-64
2021/06/12 10:04:37;;;;;;;6.30;3.40;;;25.30;67.50;;;;;;4969716;28;20125;-57
2021/06/12 10:07:04;;;;;;;10.25;3.72;;;25.30;67.70;;;;;;4969524;28;20638;-58
2021/06/12 10:09:31;;;;;;;5.18;3.33;;;25.30;67.40;;;;;;4968475;28;20043;-59
2021/06/12 10:11:57;;;;;;;6.63;3.67;;;25.30;67.40;;;;;;4968566;28;20102;-58
2021/06/12 10:14:24;;;;;;;5.65;3.97;;;25.30;67.90;;;;;;4969223;28;20065;-57
2021/06/12 10:16:53;;;;;;;4.53;4.13;;;25.30;68.70;;;;;;4969152;28;20547;-58
2021/06/12 10:19:20;;;;;;;9.48;4.10;;;25.30;69.40;;;;;;4969513;28;20121;-55
2021/06/12 10:21:47;;;;;;;4.40;4.10;;;25.30;70.30;;;;;;4968128;28;20055;-60
2021/06/12 10:24:13;;;;;;;7.28;4.70;;;25.30;71.60;;;;;;4968693;28;20047;-60
2021/06/12 10:26:40;;;;;;;17.60;6.82;;;25.30;72.70;;;;;;4969228;28;20126;-58
2021/06/12 10:29:08;;;;;;;18.23;5.57;;;25.40;73.80;;;;;;4963438;28;20057;-61
2021/06/12 10:31:35;;;;;;;21.15;5.50;;;25.40;74.50;;;;;;4969372;28;20050;-60
2021/06/12 10:34:02;;;;;;;14.15;4.63;;;25.40;74.90;;;;;;4969454;28;20075;-60
2021/06/12 10:36:31;;;;;;;13.38;4.57;;;25.40;75.20;;;;;;4969042;28;20046;-59
2021/06/12 10:38:58;;;;;;;31.40;3.72;;;25.40;75.50;;;;;;4969310;28;20515;-59
2021/06/12 10:41:29;;;;;;;9.65;4.28;;;25.40;75.80;;;;;;4969135;28;20057;-59
2021/06/12 10:44:00;;;;;;;4.55;4.15;;;25.40;75.70;;;;;;4968897;28;20093;-59
2021/06/12 10:46:28;;;;;;;13.80;4.45;;;25.40;75.80;;;;;;4961781;28;20137;-59
2021/06/12 10:48:59;;;;;;;4.82;3.97;;;25.40;75.80;;;;;;4968663;28;20851;-59
2021/06/12 10:51:25;;;;;;;10.43;4.40;;;25.40;75.80;;;;;;4968717;28;20105;-59
2021/06/12 10:54:25;;;;;;;14.07;4.22;;;25.50;76.00;;;;;;4963673;28;20086;-59
2021/06/12 10:57:00;;;;;;;4.90;4.15;;;25.40;75.70;;;;;;4961162;28;20097;-59
2021/06/12 10:59:33;;;;;;;5.15;4.10;;;25.40;75.80;;;;;;4961856;28;20050;-59
2021/06/12 11:07:42;;;;;;;10.85;4.93;;;25.40;75.90;;;;;;4968933;28;20059;-59
2021/06/12 11:10:11;;;;;;;6.20;4.18;;;25.40;75.90;;;;;;4967268;28;20134;-59
2021/06/12 11:12:39;;;;;;;4.20;3.90;;;25.50;76.40;;;;;;4969031;28;20051;-59
2021/06/12 11:15:17;;;;;;;9.55;4.18;;;25.40;76.40;;;;;;4968903;28;20047;-58
2021/06/12 11:17:44;;;;;;;5.30;4.10;;;25.40;76.50;;;;;;4983605;28;20184;-59
2021/06/12 11:20:10;;;;;;;4.80;4.22;;;25.40;76.60;;;;;;4971311;28;20129;-58
2021/06/12 11:22:37;;;;;;;4.38;4.07;;;25.40;76.40;;;;;;4966550;28;20125;-59
2021/06/12 11:25:09;;;;;;;6.10;4.32;;;25.40;76.40;;;;;;4972595;28;20085;-59
2021/06/12 11:27:34;;;;;;;3.47;3.17;;;25.50;76.50;;;;;;4972576;28;20113;-58
2021/06/12 11:30:09;;;;;;;8.88;3.67;;;25.40;76.60;;;;;;4987179;28;20047;-59
2021/06/12 11:32:36;;;;;;;2.72;2.60;;;25.40;76.70;;;;;;4972295;28;20078;-58
2021/06/12 11:35:03;;;;;;;3.22;2.08;;;25.40;77.00;;;;;;4972377;28;20719;-59
2021/06/12 11:37:30;;;;;;;3.42;3.15;;;25.40;77.10;;;;;;4971993;28;20078;-58
2021/06/12 11:40:04;;;;;;;3.45;3.17;;;25.40;76.80;;;;;;4972667;28;20129;-59
2021/06/12 11:42:41;;;;;;;8.18;3.50;;;25.40;76.90;;;;;;4972347;28;20522;-58
2021/06/12 11:45:14;;;;;;;3.15;2.95;;;25.50;76.80;;;;;;4972230;28;20089;-59
2021/06/12 11:47:40;;;;;;;6.57;5.13;;;25.40;76.60;;;;;;4987148;28;20137;-58
2021/06/12 11:50:07;;;;;;;10.63;2.85;;;25.40;76.80;;;;;;4971843;28;20515;-59
2021/06/12 11:52:38;;;;;;;6.45;3.08;;;25.50;76.90;;;;;;4971995;28;20613;-58
2021/06/12 11:55:39;;;;;;;3.70;2.47;;;25.40;76.70;;;;;;4966905;28;20081;-59
2021/06/12 11:58:05;;;;;;;2.28;2.05;;;25.50;76.80;;;;;;4959812;28;20140;-58
2021/06/12 12:00:35;;;;;;;1.98;1.98;;;25.40;76.70;;;;;;4967962;28;20486;-58
2021/06/12 12:03:12;;;;;;;2.10;2.00;;;25.40;76.90;;;;;;4971818;28;20058;-58
2021/06/12 12:05:44;;;;;;;2.92;2.03;;;25.50;77.30;;;;;;4971545;28;20958;-59
2021/06/12 12:08:18;;;;;;;2.47;2.38;;;25.40;77.40;;;;;;4971679;28;20042;-58
2021/06/12 12:10:54;;;;;;;2.70;2.50;;;25.50;77.20;;;;;;4971839;28;20137;-58
2021/06/12 12:13:26;;;;;;;2.72;2.58;;;25.50;77.00;;;;;;4971478;28;20046;-58
2021/06/12 12:15:52;;;;;;;2.10;2.10;;;25.40;76.70;;;;;;4971328;28;20133;-58
2021/06/12 12:18:18;;;;;;;2.47;2.30;;;25.50;76.90;;;;;;4971368;28;20521;-59
2021/06/12 12:20:47;;;;;;;2.20;2.10;;;25.40;76.80;;;;;;4971432;28;20042;-58
2021/06/12 12:23:21;;;;;;;2.85;2.45;;;25.50;76.80;;;;;;4971773;28;20061;-59
2021/06/12 12:25:47;;;;;;;2.58;2.10;;;25.50;76.90;;;;;;4986268;28;20051;-58
2021/06/12 12:28:20;;;;;;;2.90;2.72;;;25.40;76.70;;;;;;4971441;28;20137;-59
2021/06/12 12:30:47;;;;;;;2.78;2.67;;;25.50;76.00;;;;;;4970838;28;20050;-59
2021/06/12 12:33:15;;;;;;;2.85;2.65;;;25.40;76.40;;;;;;4971241;28;20919;-59
2021/06/12 12:35:42;;;;;;;5.05;2.63;;;25.40;76.10;;;;;;4971579;28;20134;-59
2021/06/12 12:38:21;;;;;;;6.30;3.85;;;25.40;76.30;;;;;;4971320;28;20054;-58
2021/06/12 12:40:49;;;;;;;2.72;2.50;;;25.50;76.00;;;;;;4971099;28;20068;-59
2021/06/12 12:43:19;;;;;;;8.75;2.90;;;25.40;76.20;;;;;;4971190;28;20055;-59
2021/06/12 12:45:47;;;;;;;2.95;2.58;;;25.40;76.40;;;;;;4970943;28;20141;-58
2021/06/12 12:48:15;;;;;;;4.68;2.40;;;25.50;76.20;;;;;;4971074;28;20055;-58
2021/06/12 12:50:41;;;;;;;2.67;2.03;;;25.40;76.30;;;;;;4970740;28;20051;-58
2021/06/12 12:53:14;;;;;;;2.63;2.42;;;25.40;76.40;;;;;;4966640;28;20047;-58
2021/06/12 12:55:41;;;;;;;1.90;1.80;;;25.50;76.20;;;;;;4970767;28;20074;-58
2021/06/12 12:58:08;;;;;;;1.63;1.52;;;25.40;76.30;;;;;;4971020;28;20054;-59